createdAt,value
2023-03-01T00:01:40.989Z,63.23
2023-03-01T00:04:08.467Z,58.17
2023-03-01T00:06:36.778Z,53.80
2023-03-01T00:09:05.008Z,56.50
2023-03-01T00:11:34.445Z,57.53
2023-03-01T00:14:03.479Z,56.90
2023-03-01T00:16:35.638Z,60.37
2023-03-01T00:19:03.734Z,58.53
2023-03-01T00:21:31.122Z,66.30
2023-03-01T00:23:59.302Z,57.23
2023-03-01T00:26:27.544Z,61.57
2023-03-01T00:28:58.592Z,58.63
2023-03-01T00:31:30.412Z,60.70
2023-03-01T00:34:04.729Z,54.67
2023-03-01T00:36:36.022Z,56.27
2023-03-01T00:39:05.906Z,69.07
2023-03-01T00:41:34.924Z,71.50
2023-03-01T00:44:03.185Z,77.32
2023-03-01T00:46:31.836Z,84.77
2023-03-01T00:48:59.758Z,73.23
2023-03-01T00:51:29.260Z,97.07
2023-03-01T00:54:01.572Z,83.70
2023-03-01T00:56:30.205Z,88.83
2023-03-01T00:58:57.725Z,88.33
2023-03-01T01:01:32.596Z,91.77
2023-03-01T01:04:06.384Z,85.77
2023-03-01T01:06:44.959Z,97.97
2023-03-01T01:09:19.691Z,96.27
2023-03-01T01:11:51.180Z,80.57
2023-03-01T01:14:19.534Z,90.20
2023-03-01T01:16:46.910Z,90.43
2023-03-01T01:19:14.698Z,83.50
2023-03-01T01:21:44.269Z,103.33
2023-03-01T01:24:12.358Z,87.67
2023-03-01T01:26:39.722Z,80.70
2023-03-01T01:29:08.000Z,102.00
2023-03-01T01:31:37.012Z,95.03
2023-03-01T01:34:07.037Z,101.40
2023-03-01T01:36:36.064Z,90.90
2023-03-01T01:39:04.356Z,94.63
2023-03-01T01:41:31.817Z,80.43
2023-03-01T01:44:24.574Z,95.43
2023-03-01T01:47:02.156Z,110.07
2023-03-01T01:49:44.690Z,97.17
2023-03-01T01:52:25.435Z,92.47
2023-03-01T01:57:46.017Z,87.40
2023-03-01T02:00:22.578Z,97.17
2023-03-01T02:02:57.555Z,95.90
2023-03-01T02:05:56.702Z,88.77
2023-03-01T02:08:31.441Z,86.63
2023-03-01T02:11:00.808Z,87.00
2023-03-01T02:13:29.492Z,104.63
2023-03-01T02:15:57.133Z,87.63
2023-03-01T02:18:25.938Z,77.33
2023-03-01T02:21:46.256Z,96.67
2023-03-01T02:24:47.232Z,79.90
2023-03-01T02:27:14.766Z,86.63
2023-03-01T02:29:44.994Z,91.57
2023-03-01T02:32:13.437Z,100.95
2023-03-01T02:34:41.067Z,90.17
2023-03-01T02:37:21.564Z,84.00
2023-03-01T02:39:51.585Z,75.50
2023-03-01T02:42:27.436Z,80.47
2023-03-01T02:44:54.878Z,79.63
2023-03-01T02:47:22.181Z,85.20
2023-03-01T02:49:49.410Z,82.53
2023-03-01T02:52:42.132Z,83.60
2023-03-01T02:55:14.911Z,86.23
2023-03-01T02:57:45.752Z,71.60
2023-03-01T03:00:26.177Z,79.20
2023-03-01T03:02:55.360Z,77.65
2023-03-01T03:05:29.567Z,71.83
2023-03-01T03:08:00.868Z,75.27
2023-03-01T03:10:32.196Z,76.68
2023-03-01T03:13:12.020Z,58.63
2023-03-01T03:15:40.119Z,77.60
2023-03-01T03:18:11.921Z,66.43
2023-03-01T03:20:42.911Z,61.60
2023-03-01T03:23:10.501Z,66.00
2023-03-01T03:25:38.902Z,71.77
2023-03-01T03:28:10.956Z,74.70
2023-03-01T03:30:42.179Z,66.43
2023-03-01T03:33:13.657Z,77.13
2023-03-01T03:35:48.934Z,71.20
2023-03-01T03:38:22.936Z,85.73
2023-03-01T03:41:09.620Z,87.30
2023-03-01T03:43:39.499Z,91.57
2023-03-01T03:46:08.197Z,89.03
2023-03-01T03:48:42.230Z,85.47
2023-03-01T03:51:13.933Z,72.53
2023-03-01T03:53:41.770Z,82.67
2023-03-01T03:56:09.368Z,81.30
2023-03-01T03:58:37.430Z,90.90
2023-03-01T04:01:05.458Z,76.87
2023-03-01T04:03:36.028Z,73.27
2023-03-01T04:06:05.274Z,71.55
2023-03-01T04:08:33.138Z,73.20
2023-03-01T04:11:23.926Z,72.93
2023-03-01T04:16:20.203Z,68.83
2023-03-01T04:18:48.590Z,66.40
2023-03-01T04:21:16.151Z,71.53
2023-03-01T04:23:43.884Z,70.77
2023-03-01T04:26:11.318Z,63.40
2023-03-01T04:28:44.015Z,69.80
2023-03-01T04:31:17.397Z,69.93
2023-03-01T04:33:53.750Z,69.37
2023-03-01T04:36:24.810Z,74.90
2023-03-01T04:38:53.117Z,77.17
2023-03-01T04:41:23.253Z,76.83
2023-03-01T04:43:50.936Z,88.05
2023-03-01T04:46:21.722Z,70.93
2023-03-01T04:48:49.938Z,80.53
2023-03-01T04:51:17.726Z,84.43
2023-03-01T04:53:45.835Z,83.17
2023-03-01T04:56:15.015Z,82.00
2023-03-01T04:58:43.096Z,74.33
2023-03-01T05:01:17.186Z,82.23
2023-03-01T05:03:46.523Z,77.53
2023-03-01T05:06:14.304Z,76.17
2023-03-01T05:08:42.667Z,98.53
2023-03-01T05:11:10.547Z,81.43
2023-03-01T05:13:40.298Z,80.37
2023-03-01T05:16:12.932Z,80.00
2023-03-01T05:18:41.535Z,92.67
2023-03-01T05:21:18.370Z,96.03
2023-03-01T05:23:47.909Z,104.10
2023-03-01T05:26:27.898Z,105.13
2023-03-01T05:29:00.219Z,94.05
2023-03-01T05:31:28.797Z,94.40
2023-03-01T05:33:56.055Z,85.57
2023-03-01T05:36:23.360Z,87.53
2023-03-01T05:38:50.593Z,89.57
2023-03-01T05:41:18.133Z,81.90
2023-03-01T05:43:46.169Z,72.53
2023-03-01T05:46:16.421Z,67.33
2023-03-01T05:48:43.802Z,68.18
2023-03-01T05:51:11.269Z,77.50
2023-03-01T05:53:38.457Z,75.47
2023-03-01T05:56:06.185Z,80.53
2023-03-01T05:58:33.546Z,77.47
2023-03-01T06:01:00.825Z,76.17
2023-03-01T06:03:28.182Z,81.13
2023-03-01T06:05:59.243Z,74.83
2023-03-01T06:08:28.299Z,77.23
2023-03-01T06:10:55.819Z,73.83
2023-03-01T06:13:24.607Z,73.23
2023-03-01T06:15:52.953Z,77.33
2023-03-01T06:18:20.356Z,75.40
2023-03-01T06:20:55.375Z,71.30
2023-03-01T06:23:24.188Z,62.23
2023-03-01T06:25:51.892Z,66.87
2023-03-01T06:28:19.122Z,70.13
2023-03-01T06:30:47.111Z,61.70
2023-03-01T06:33:15.152Z,58.57
2023-03-01T06:35:42.655Z,57.27
2023-03-01T06:38:10.485Z,57.20
2023-03-01T06:40:37.659Z,77.47
2023-03-01T06:43:05.354Z,64.10
2023-03-01T06:45:33.407Z,69.23
2023-03-01T06:48:08.378Z,68.78
2023-03-01T06:50:39.318Z,65.88
2023-03-01T06:53:06.761Z,72.15
2023-03-01T06:55:34.131Z,74.32
2023-03-01T06:58:03.056Z,68.00
2023-03-01T07:00:31.013Z,70.43
2023-03-01T07:03:03.571Z,68.93
2023-03-01T07:05:31.754Z,66.13
2023-03-01T07:07:59.124Z,67.22
2023-03-01T07:10:26.479Z,59.92
2023-03-01T07:13:00.673Z,66.68
2023-03-01T07:15:28.905Z,61.20
2023-03-01T07:17:57.358Z,66.65
2023-03-01T07:20:26.304Z,64.03
2023-03-01T07:22:55.848Z,63.95
2023-03-01T07:25:23.372Z,63.67
2023-03-01T07:27:53.469Z,60.33
2023-03-01T07:30:22.343Z,72.68
2023-03-01T07:32:49.858Z,63.40
2023-03-01T07:35:17.317Z,59.90
2023-03-01T07:37:45.078Z,64.50
2023-03-01T07:40:13.141Z,68.75
2023-03-01T07:42:40.440Z,65.07
2023-03-01T07:45:08.847Z,61.75
2023-03-01T07:47:36.176Z,69.70
2023-03-01T07:50:04.944Z,80.63
2023-03-01T07:52:32.192Z,77.57
2023-03-01T07:54:59.418Z,73.60
2023-03-01T07:57:26.724Z,57.08
2023-03-01T07:59:54.042Z,56.40
2023-03-01T08:02:21.251Z,55.78
2023-03-01T08:04:48.550Z,56.92
2023-03-01T08:07:15.693Z,50.55
2023-03-01T08:09:43.008Z,52.63
2023-03-01T08:12:10.136Z,58.08
2023-03-01T08:14:37.443Z,51.85
2023-03-01T08:17:04.699Z,57.75
2023-03-01T08:19:32.176Z,52.25
2023-03-01T08:22:00.929Z,60.35
2023-03-01T08:24:28.187Z,59.50
2023-03-01T08:26:55.813Z,52.50
2023-03-01T08:29:23.533Z,53.80
2023-03-01T08:31:51.002Z,53.28
2023-03-01T08:34:19.645Z,53.10
2023-03-01T08:36:47.793Z,54.55
2023-03-01T08:39:18.055Z,53.42
2023-03-01T08:44:17.904Z,53.92
2023-03-01T08:46:46.654Z,50.75
2023-03-01T08:49:18.795Z,51.65
2023-03-01T08:51:47.557Z,49.10
2023-03-01T08:54:21.510Z,44.35
2023-03-01T08:56:49.856Z,41.28
2023-03-01T08:59:18.626Z,42.40
2023-03-01T09:01:46.459Z,48.05
2023-03-01T09:04:15.684Z,45.90
2023-03-01T09:06:43.164Z,39.80
2023-03-01T09:09:17.406Z,42.65
2023-03-01T09:11:47.373Z,47.97
2023-03-01T09:14:15.702Z,45.08
2023-03-01T09:16:43.717Z,51.10
2023-03-01T09:19:11.181Z,46.67
2023-03-01T09:21:41.149Z,49.70
2023-03-01T09:24:15.479Z,39.05
2023-03-01T09:26:44.047Z,44.13
2023-03-01T09:29:11.443Z,52.85
2023-03-01T09:31:39.651Z,54.45
2023-03-01T09:34:07.443Z,56.83
2023-03-01T09:36:35.152Z,55.47
2023-03-01T09:39:03.852Z,54.10
2023-03-01T09:41:49.877Z,57.28
2023-03-01T09:44:32.704Z,59.63
2023-03-01T09:47:01.029Z,67.03
2023-03-01T09:49:36.098Z,66.30
2023-03-01T09:52:26.708Z,76.93
2023-03-01T09:54:59.649Z,75.90
2023-03-01T09:57:41.970Z,73.32
2023-03-01T10:00:40.172Z,66.10
2023-03-01T10:03:29.335Z,60.92
2023-03-01T10:06:35.288Z,62.72
2023-03-01T10:09:15.163Z,59.50
2023-03-01T10:11:55.313Z,54.13
2023-03-01T10:14:48.397Z,52.58
2023-03-01T10:17:57.862Z,56.30
2023-03-01T10:20:46.006Z,53.75
2023-03-01T10:23:13.409Z,59.42
2023-03-01T10:26:12.958Z,50.97
2023-03-01T10:28:51.973Z,54.27
2023-03-01T10:31:29.671Z,56.63
2023-03-01T10:33:59.016Z,50.97
2023-03-01T10:36:26.287Z,51.40
2023-03-01T10:38:58.855Z,48.53
2023-03-01T10:41:28.622Z,54.42
2023-03-01T10:44:00.615Z,57.67
2023-03-01T10:46:33.592Z,53.25
2023-03-01T10:49:14.903Z,53.83
2023-03-01T10:51:45.928Z,49.63
2023-03-01T10:54:33.311Z,52.40
2023-03-01T10:57:06.490Z,53.40
2023-03-01T10:59:39.479Z,60.63
2023-03-01T11:02:29.802Z,54.83
2023-03-01T11:07:49.356Z,58.58
2023-03-01T11:10:25.084Z,56.40
2023-03-01T11:12:54.455Z,63.58
2023-03-01T11:15:29.906Z,50.13
2023-03-01T11:18:08.889Z,44.83
2023-03-01T11:20:40.505Z,46.25
2023-03-01T11:23:14.024Z,40.00
2023-03-01T11:25:47.031Z,40.67
2023-03-01T11:28:19.148Z,39.08
2023-03-01T11:31:08.693Z,38.97
2023-03-01T11:34:06.218Z,45.55
2023-03-01T11:36:56.016Z,40.58
2023-03-01T11:39:39.043Z,40.53
2023-03-01T11:42:19.113Z,36.95
2023-03-01T11:44:51.619Z,37.88
2023-03-01T11:48:13.703Z,37.33
2023-03-01T11:50:49.371Z,33.67
2023-03-01T11:53:31.738Z,35.95
2023-03-01T11:56:28.622Z,35.17
2023-03-01T11:59:31.952Z,35.00
2023-03-01T12:02:27.167Z,34.15
2023-03-01T12:05:17.923Z,33.70
2023-03-01T12:07:54.183Z,32.22
2023-03-01T12:10:26.786Z,37.28
2023-03-01T12:13:19.575Z,29.50
2023-03-01T12:16:38.333Z,33.90
2023-03-01T12:19:46.797Z,34.45
2023-03-01T12:22:32.895Z,34.75
2023-03-01T12:25:19.654Z,35.22
2023-03-01T12:28:11.448Z,33.15
2023-03-01T12:31:38.582Z,35.92
2023-03-01T12:34:38.824Z,34.10
2023-03-01T12:37:48.681Z,36.25
2023-03-01T12:40:28.533Z,35.13
2023-03-01T12:43:16.667Z,33.22
2023-03-01T12:46:08.860Z,31.65
2023-03-01T12:48:53.419Z,32.83
2023-03-01T12:51:28.013Z,34.67
2023-03-01T12:53:58.145Z,35.67
2023-03-01T12:56:30.599Z,36.17
2023-03-01T12:59:26.619Z,33.65
2023-03-01T13:02:14.472Z,30.80
2023-03-01T13:05:06.251Z,34.53
2023-03-01T13:08:10.539Z,28.33
2023-03-01T13:10:58.695Z,35.53
2023-03-01T13:13:28.938Z,33.25
2023-03-01T13:15:57.721Z,30.67
2023-03-01T13:18:26.391Z,35.08
2023-03-01T13:21:00.520Z,30.52
2023-03-01T13:23:40.351Z,33.22
2023-03-01T13:26:19.588Z,28.70
2023-03-01T13:28:49.887Z,28.48
2023-03-01T13:31:16.933Z,29.70
2023-03-01T13:33:52.642Z,43.00
2023-03-01T13:36:29.151Z,30.02
2023-03-01T13:39:16.804Z,28.02
2023-03-01T13:41:43.955Z,27.33
2023-03-01T13:44:39.854Z,27.00
2023-03-01T13:47:07.245Z,27.50
2023-03-01T13:49:58.979Z,29.70
2023-03-01T13:53:19.445Z,27.58
2023-03-01T13:56:02.172Z,25.30
2023-03-01T13:58:33.517Z,25.52
2023-03-01T14:01:07.102Z,24.73
2023-03-01T14:03:42.844Z,24.25
2023-03-01T14:06:39.884Z,26.25
2023-03-01T14:09:22.587Z,26.15
2023-03-01T14:12:09.905Z,26.17
2023-03-01T14:15:05.967Z,22.75
2023-03-01T14:18:05.352Z,22.02
2023-03-01T14:20:41.300Z,25.35
2023-03-01T14:23:16.755Z,27.15
2023-03-01T14:25:59.004Z,23.33
2023-03-01T14:28:35.416Z,23.38
2023-03-01T14:31:03.667Z,22.42
2023-03-01T14:33:34.458Z,23.02
2023-03-01T14:38:39.545Z,26.77
2023-03-01T14:41:16.886Z,22.33
2023-03-01T14:43:59.059Z,24.30
2023-03-01T14:46:34.129Z,23.25
2023-03-01T14:49:13.281Z,21.98
2023-03-01T14:51:44.030Z,19.83
2023-03-01T14:57:00.876Z,23.88
2023-03-01T14:59:28.889Z,25.90
2023-03-01T15:01:59.255Z,29.02
2023-03-01T15:04:28.693Z,23.55
2023-03-01T15:07:05.740Z,23.95
2023-03-01T15:09:37.628Z,27.27
2023-03-01T15:12:37.056Z,25.02
2023-03-01T15:15:42.515Z,23.70
2023-03-01T15:18:28.607Z,20.65
2023-03-01T15:20:57.087Z,28.40
2023-03-01T15:23:30.952Z,22.50
2023-03-01T15:25:59.160Z,23.13
2023-03-01T15:28:38.644Z,28.52
2023-03-01T15:31:24.231Z,28.95
2023-03-01T15:33:52.449Z,28.38
2023-03-01T15:36:32.156Z,21.90
2023-03-01T15:39:01.318Z,25.20
2023-03-01T15:41:39.129Z,24.85
2023-03-01T15:44:35.035Z,20.20
2023-03-01T15:47:29.273Z,22.48
2023-03-01T15:49:58.325Z,32.80
2023-03-01T15:52:37.876Z,31.80
2023-03-01T15:55:16.644Z,24.70
2023-03-01T15:57:43.974Z,25.02
2023-03-01T16:00:14.471Z,25.42
2023-03-01T16:02:44.358Z,25.27
2023-03-01T16:05:28.297Z,28.60
2023-03-01T16:07:56.083Z,31.33
2023-03-01T16:10:24.131Z,30.08
2023-03-01T16:12:53.506Z,36.78
2023-03-01T16:15:31.764Z,25.35
2023-03-01T16:17:59.935Z,24.95
2023-03-01T16:20:30.954Z,30.35
2023-03-01T16:23:03.608Z,54.30
2023-03-01T16:28:01.244Z,96.55
2023-03-01T16:30:28.809Z,79.25
2023-03-01T16:32:55.984Z,84.35
2023-03-01T16:35:24.497Z,93.05
2023-03-01T16:37:53.615Z,75.30
2023-03-01T16:40:28.294Z,65.80
2023-03-01T16:43:02.186Z,49.40
2023-03-01T16:45:36.791Z,47.28
2023-03-01T16:48:05.235Z,44.42
2023-03-01T16:50:32.513Z,35.30
2023-03-01T16:52:59.728Z,36.92
2023-03-01T16:55:27.033Z,48.75
2023-03-01T16:57:54.366Z,44.45
2023-03-01T17:00:23.569Z,36.53
2023-03-01T17:02:50.924Z,44.88
2023-03-01T17:05:18.566Z,48.10
2023-03-01T17:07:45.833Z,43.83
2023-03-01T17:10:13.236Z,35.33
2023-03-01T17:12:40.664Z,38.85
2023-03-01T17:15:08.429Z,43.03
2023-03-01T17:17:36.036Z,50.20
2023-03-01T17:20:05.010Z,39.17
2023-03-01T17:22:32.400Z,40.63
2023-03-01T17:24:59.970Z,41.00
2023-03-01T17:27:27.615Z,43.00
2023-03-01T17:29:54.911Z,40.03
2023-03-01T17:32:22.509Z,41.53
2023-03-01T17:34:49.782Z,43.17
2023-03-01T17:37:17.137Z,46.37
2023-03-01T17:39:44.413Z,40.93
2023-03-01T17:42:11.656Z,44.57
2023-03-01T17:44:39.120Z,52.45
2023-03-01T17:47:06.760Z,54.83
2023-03-01T17:49:34.528Z,50.97
2023-03-01T17:52:01.814Z,50.10
2023-03-01T17:54:29.167Z,53.88
2023-03-01T17:56:58.893Z,58.63
2023-03-01T17:59:31.365Z,62.40
2023-03-01T18:02:01.568Z,48.53
2023-03-01T18:04:30.149Z,52.40
2023-03-01T18:06:58.591Z,46.70
2023-03-01T18:09:28.381Z,44.03
2023-03-01T18:11:55.869Z,40.05
2023-03-01T18:14:23.604Z,44.73
2023-03-01T18:16:50.961Z,43.97
2023-03-01T18:19:18.690Z,45.43
2023-03-01T18:21:46.019Z,48.67
2023-03-01T18:24:13.474Z,47.70
2023-03-01T18:26:40.765Z,44.53
2023-03-01T18:29:08.385Z,49.07
2023-03-01T18:31:35.744Z,41.93
2023-03-01T18:34:03.843Z,43.23
2023-03-01T18:36:35.266Z,47.53
2023-03-01T18:39:05.608Z,53.00
2023-03-01T18:41:34.253Z,49.13
2023-03-01T18:44:03.768Z,55.67
2023-03-01T18:46:31.970Z,48.37
2023-03-01T18:48:59.815Z,53.57
2023-03-01T18:51:29.126Z,58.87
2023-03-01T18:54:00.976Z,54.83
2023-03-01T18:56:33.993Z,56.37
2023-03-01T18:59:02.528Z,48.97
2023-03-01T19:01:34.709Z,60.47
2023-03-01T19:04:04.753Z,51.80
2023-03-01T19:06:35.257Z,58.20
2023-03-01T19:11:33.503Z,49.00
2023-03-01T19:14:02.537Z,51.75
2023-03-01T19:16:32.402Z,53.23
2023-03-01T19:19:03.317Z,44.90
2023-03-01T19:21:32.508Z,50.30
2023-03-01T19:24:02.507Z,55.77
2023-03-01T19:26:31.431Z,49.13
2023-03-01T19:28:59.249Z,55.33
2023-03-01T19:31:29.713Z,51.77
2023-03-01T19:34:10.964Z,53.90
2023-03-01T19:36:44.046Z,53.43
2023-03-01T19:39:14.007Z,57.67
2023-03-01T19:41:42.739Z,55.30
2023-03-01T19:44:10.452Z,59.80
2023-03-01T19:46:38.073Z,63.87
2023-03-01T19:49:06.377Z,61.57
2023-03-01T19:51:36.218Z,52.13
2023-03-01T19:54:05.996Z,57.93
2023-03-01T19:56:34.706Z,59.28
2023-03-01T19:59:04.499Z,59.10
2023-03-01T20:01:34.808Z,65.50
2023-03-01T20:04:03.834Z,79.50
2023-03-01T20:06:31.643Z,66.57
2023-03-01T20:09:02.376Z,74.03
2023-03-01T20:11:34.542Z,58.67
2023-03-01T20:14:02.319Z,63.03
2023-03-01T20:16:29.907Z,60.93
2023-03-01T20:19:00.615Z,64.23
2023-03-01T20:21:28.547Z,68.28
2023-03-01T20:23:55.897Z,67.73
2023-03-01T20:26:25.474Z,78.60
2023-03-01T20:28:57.255Z,70.07
2023-03-01T20:31:30.037Z,70.53
2023-03-01T20:33:59.135Z,67.27
2023-03-01T20:36:28.294Z,74.93
2023-03-01T20:38:56.287Z,70.07
2023-03-01T20:41:26.469Z,66.40
2023-03-01T20:43:58.743Z,66.13
2023-03-01T20:46:27.137Z,74.37
2023-03-01T20:48:54.602Z,62.20
2023-03-01T20:51:22.039Z,79.60
2023-03-01T20:53:49.552Z,80.63
2023-03-01T20:56:19.088Z,77.40
2023-03-01T20:59:04.519Z,82.83
2023-03-01T21:01:32.028Z,85.07
2023-03-01T21:03:59.295Z,93.43
2023-03-01T21:06:26.608Z,83.37
2023-03-01T21:08:56.052Z,83.73
2023-03-01T21:11:27.093Z,85.27
2023-03-01T21:13:55.705Z,88.90
2023-03-01T21:16:23.590Z,86.33
2023-03-01T21:18:51.200Z,96.93
2023-03-01T21:21:22.457Z,94.27
2023-03-01T21:23:49.905Z,84.57
2023-03-01T21:26:24.119Z,94.87
2023-03-01T21:28:59.175Z,89.97
2023-03-01T21:31:34.130Z,100.13
2023-03-01T21:34:05.871Z,86.43
2023-03-01T21:36:34.799Z,88.67
2023-03-01T21:39:02.995Z,91.17
2023-03-01T21:41:34.533Z,107.90
2023-03-01T21:44:03.801Z,110.07
2023-03-01T21:46:36.656Z,106.20
2023-03-01T21:49:05.250Z,98.83
2023-03-01T21:51:32.988Z,90.43
2023-03-01T21:54:03.749Z,103.40
2023-03-01T22:01:30.292Z,98.23
2023-03-01T22:04:00.340Z,92.73
2023-03-01T22:06:31.635Z,97.47
2023-03-01T22:09:05.954Z,98.53
2023-03-01T22:11:38.142Z,106.43
2023-03-01T22:14:06.323Z,94.87
2023-03-01T22:16:37.038Z,103.50
2023-03-01T22:21:34.599Z,84.87
2023-03-01T22:24:02.271Z,91.50
2023-03-01T22:26:37.389Z,89.70
2023-03-01T22:29:12.416Z,93.57
2023-03-01T22:31:41.013Z,95.37
2023-03-01T22:34:08.796Z,96.43
2023-03-01T22:36:36.750Z,96.03
2023-03-01T22:39:04.448Z,96.40
2023-03-01T22:41:44.039Z,112.77
2023-03-01T22:44:18.658Z,97.07
2023-03-01T22:46:47.059Z,111.37
2023-03-01T22:49:14.598Z,112.17
2023-03-01T22:51:43.595Z,110.03
2023-03-01T22:54:11.643Z,104.47
2023-03-01T22:56:40.145Z,107.80
2023-03-01T22:59:11.088Z,116.93
2023-03-01T23:01:40.714Z,116.43
2023-03-01T23:04:08.632Z,121.83
2023-03-01T23:06:50.597Z,128.13
2023-03-01T23:09:20.874Z,115.27
2023-03-01T23:11:48.874Z,117.35
2023-03-01T23:14:16.465Z,107.97
2023-03-01T23:16:43.773Z,109.37
2023-03-01T23:19:11.078Z,101.43
2023-03-01T23:21:38.399Z,75.63
2023-03-01T23:24:06.096Z,91.67
2023-03-01T23:26:33.659Z,88.27
2023-03-01T23:29:01.145Z,102.93
2023-03-01T23:31:30.193Z,102.90
2023-03-01T23:33:57.733Z,88.50
2023-03-01T23:36:34.407Z,84.67
2023-03-01T23:39:06.850Z,86.83
2023-03-01T23:41:35.359Z,96.77
2023-03-01T23:44:05.221Z,90.63
2023-03-01T23:46:36.150Z,95.63
2023-03-01T23:49:04.705Z,92.13
2023-03-01T23:51:32.105Z,98.60
2023-03-01T23:54:05.481Z,100.00
2023-03-01T23:56:36.763Z,104.60
2023-03-01T23:59:19.764Z,97.20
